createdAt,value
2023-01-26T00:00:57.066Z,27.88
2023-01-26T00:03:24.127Z,26.98
2023-01-26T00:05:50.950Z,29.20
2023-01-26T00:08:17.657Z,25.98
2023-01-26T00:10:50.287Z,25.25
2023-01-26T00:13:22.506Z,26.55
2023-01-26T00:15:49.409Z,25.23
2023-01-26T00:18:16.032Z,24.02
2023-01-26T00:20:42.755Z,26.30
2023-01-26T00:23:09.593Z,24.55
2023-01-26T00:25:39.925Z,26.52
2023-01-26T00:28:06.584Z,25.58
2023-01-26T00:30:33.321Z,27.42
2023-01-26T00:32:59.963Z,23.23
2023-01-26T00:35:26.563Z,24.13
2023-01-26T00:37:54.747Z,26.10
2023-01-26T00:40:21.406Z,26.08
2023-01-26T00:42:48.092Z,27.98
2023-01-26T00:45:14.809Z,24.90
2023-01-26T00:47:41.491Z,23.40
2023-01-26T00:50:09.278Z,26.08
2023-01-26T00:52:36.114Z,25.05
2023-01-26T00:55:02.907Z,25.33
2023-01-26T00:57:29.492Z,26.33
2023-01-26T00:59:56.504Z,26.63
2023-01-26T01:02:24.995Z,26.35
2023-01-26T01:04:51.527Z,26.17
2023-01-26T01:07:18.853Z,24.95
2023-01-26T01:09:46.623Z,27.70
2023-01-26T01:12:13.336Z,24.75
2023-01-26T01:14:39.888Z,24.65
2023-01-26T01:17:06.597Z,24.30
2023-01-26T01:19:33.324Z,24.20
2023-01-26T01:22:00.006Z,26.58
2023-01-26T01:24:26.764Z,24.92
2023-01-26T01:26:53.385Z,23.10
2023-01-26T01:29:20.773Z,26.73
2023-01-26T01:31:47.433Z,25.55
2023-01-26T01:34:14.191Z,24.42
2023-01-26T01:36:40.866Z,24.30
2023-01-26T01:39:07.526Z,24.77
2023-01-26T01:41:34.696Z,23.52
2023-01-26T01:44:17.645Z,24.55
2023-01-26T01:46:50.146Z,25.15
2023-01-26T01:49:30.771Z,26.48
2023-01-26T01:52:26.977Z,24.85
2023-01-26T01:55:01.876Z,25.63
2023-01-26T01:57:44.731Z,23.52
2023-01-26T02:00:15.013Z,25.27
2023-01-26T02:02:44.261Z,22.52
2023-01-26T02:05:22.161Z,27.30
2023-01-26T02:07:50.967Z,24.52
2023-01-26T02:10:19.794Z,27.10
2023-01-26T02:12:49.900Z,24.02
2023-01-26T02:15:16.520Z,26.30
2023-01-26T02:17:43.343Z,26.05
2023-01-26T02:20:28.572Z,27.98
2023-01-26T02:23:22.145Z,25.95
2023-01-26T02:25:52.983Z,28.05
2023-01-26T02:28:24.850Z,26.13
2023-01-26T02:30:53.005Z,24.10
2023-01-26T02:33:22.577Z,22.92
2023-01-26T02:35:49.241Z,22.70
2023-01-26T02:38:19.120Z,24.15
2023-01-26T02:40:52.880Z,24.33
2023-01-26T02:43:19.585Z,25.38
2023-01-26T02:45:46.388Z,24.83
2023-01-26T02:48:13.147Z,21.70
2023-01-26T02:50:40.341Z,24.85
2023-01-26T02:53:06.973Z,21.10
2023-01-26T02:55:34.765Z,23.55
2023-01-26T02:58:02.889Z,23.75
2023-01-26T03:00:37.202Z,22.83
2023-01-26T03:03:13.965Z,21.38
2023-01-26T03:05:40.661Z,20.90
2023-01-26T03:08:07.321Z,23.05
2023-01-26T03:10:36.862Z,24.38
2023-01-26T03:13:04.047Z,20.65
2023-01-26T03:15:42.716Z,19.42
2023-01-26T03:18:34.224Z,23.67
2023-01-26T03:21:31.462Z,23.20
2023-01-26T03:24:16.977Z,25.33
2023-01-26T03:27:02.416Z,23.27
2023-01-26T03:29:29.912Z,21.25
2023-01-26T03:31:59.319Z,22.02
2023-01-26T03:34:26.392Z,23.67
2023-01-26T03:36:53.705Z,22.75
2023-01-26T03:39:39.580Z,22.55
2023-01-26T03:42:25.054Z,21.52
2023-01-26T03:45:10.225Z,24.27
2023-01-26T03:47:57.681Z,23.00
2023-01-26T03:50:43.266Z,22.00
2023-01-26T03:53:40.401Z,22.08
2023-01-26T03:56:18.166Z,19.42
2023-01-26T03:58:47.071Z,22.52
2023-01-26T04:01:21.599Z,22.92
2023-01-26T04:04:10.972Z,21.42
2023-01-26T04:07:03.001Z,24.58
2023-01-26T04:09:30.801Z,21.55
2023-01-26T04:11:58.282Z,21.88
2023-01-26T04:14:49.719Z,21.55
2023-01-26T04:17:40.090Z,23.75
2023-01-26T04:20:26.442Z,21.35
2023-01-26T04:22:53.114Z,20.20
2023-01-26T04:25:21.219Z,21.55
2023-01-26T04:27:48.341Z,22.80
2023-01-26T04:30:16.922Z,21.58
2023-01-26T04:32:44.376Z,22.33
2023-01-26T04:35:11.663Z,21.67
2023-01-26T04:37:38.986Z,23.13
2023-01-26T04:40:07.146Z,18.50
2023-01-26T04:42:35.886Z,20.92
2023-01-26T04:45:04.509Z,20.00
2023-01-26T04:47:31.788Z,21.73
2023-01-26T04:49:58.477Z,21.23
2023-01-26T04:52:25.447Z,23.75
2023-01-26T04:54:53.038Z,20.02
2023-01-26T04:57:24.481Z,19.45
2023-01-26T04:59:51.848Z,20.80
2023-01-26T05:02:19.809Z,20.92
2023-01-26T05:04:46.932Z,21.75
2023-01-26T05:07:14.639Z,20.58
2023-01-26T05:09:41.280Z,21.77
2023-01-26T05:12:33.392Z,21.48
2023-01-26T05:15:29.115Z,18.35
2023-01-26T05:18:15.668Z,19.75
2023-01-26T05:20:48.362Z,17.75
2023-01-26T05:23:17.309Z,19.10
2023-01-26T05:26:07.406Z,16.58
2023-01-26T05:28:51.991Z,17.65
2023-01-26T05:31:18.755Z,18.42
2023-01-26T05:33:45.371Z,20.98
2023-01-26T05:36:15.265Z,18.00
2023-01-26T05:38:41.972Z,17.17
2023-01-26T05:41:09.389Z,18.63
2023-01-26T05:43:56.228Z,16.20
2023-01-26T05:46:42.410Z,16.75
2023-01-26T05:49:09.091Z,15.13
2023-01-26T05:51:35.959Z,16.05
2023-01-26T05:54:03.318Z,16.58
2023-01-26T05:56:29.959Z,13.80
2023-01-26T05:59:00.623Z,15.18
2023-01-26T06:01:27.313Z,13.65
2023-01-26T06:03:59.013Z,14.30
2023-01-26T06:06:29.434Z,15.55
2023-01-26T06:09:10.803Z,13.75
2023-01-26T06:12:01.597Z,15.38
2023-01-26T06:14:47.229Z,13.43
2023-01-26T06:17:16.222Z,13.18
2023-01-26T06:19:43.397Z,13.23
2023-01-26T06:22:11.336Z,13.73
2023-01-26T06:24:39.608Z,13.75
2023-01-26T06:27:13.313Z,13.57
2023-01-26T06:29:40.711Z,13.35
2023-01-26T06:32:07.786Z,12.40
2023-01-26T06:34:34.441Z,14.00
2023-01-26T06:37:01.231Z,13.80
2023-01-26T06:39:33.385Z,15.35
2023-01-26T06:42:00.998Z,12.55
2023-01-26T06:44:27.567Z,13.75
2023-01-26T06:46:54.101Z,13.48
2023-01-26T06:49:20.838Z,12.57
2023-01-26T06:52:05.525Z,13.70
2023-01-26T06:54:42.380Z,13.82
2023-01-26T06:57:26.604Z,13.45
2023-01-26T07:00:14.232Z,12.55
2023-01-26T07:02:53.001Z,12.80
2023-01-26T07:05:19.816Z,18.73
2023-01-26T07:07:46.528Z,14.52
2023-01-26T07:10:13.488Z,14.35
2023-01-26T07:12:45.278Z,13.48
2023-01-26T07:15:13.234Z,13.20
2023-01-26T07:17:40.102Z,14.85
2023-01-26T07:20:07.721Z,15.65
2023-01-26T07:22:34.277Z,14.70
2023-01-26T07:25:00.894Z,14.50
2023-01-26T07:27:27.457Z,16.65
2023-01-26T07:29:54.147Z,12.38
2023-01-26T07:32:20.798Z,12.90
2023-01-26T07:34:48.199Z,15.10
2023-01-26T07:37:14.980Z,13.25
2023-01-26T07:39:41.492Z,15.70
2023-01-26T07:42:10.159Z,13.10
2023-01-26T07:44:59.814Z,13.07
2023-01-26T07:47:26.560Z,14.32
2023-01-26T07:49:53.341Z,12.25
2023-01-26T07:52:19.849Z,12.50
2023-01-26T07:54:46.592Z,12.13
2023-01-26T07:57:13.198Z,12.05
2023-01-26T07:59:39.847Z,11.68
2023-01-26T08:02:06.391Z,12.55
2023-01-26T08:04:33.059Z,12.43
2023-01-26T08:06:59.766Z,12.98
2023-01-26T08:09:26.497Z,14.75
2023-01-26T08:11:53.172Z,12.93
2023-01-26T08:14:19.760Z,14.40
2023-01-26T08:16:46.602Z,12.95
2023-01-26T08:19:13.398Z,12.95
2023-01-26T08:21:40.088Z,10.75
2023-01-26T08:24:07.118Z,12.20
2023-01-26T08:26:33.749Z,11.57
2023-01-26T08:29:00.652Z,12.30
2023-01-26T08:31:28.166Z,13.98
2023-01-26T08:33:55.994Z,13.65
2023-01-26T08:36:23.187Z,11.30
2023-01-26T08:38:51.218Z,12.05
2023-01-26T08:41:18.543Z,12.05
2023-01-26T08:43:45.379Z,12.25
2023-01-26T08:46:12.069Z,9.90
2023-01-26T08:48:38.944Z,12.32
2023-01-26T08:51:08.349Z,12.73
2023-01-26T08:53:37.190Z,12.27
2023-01-26T08:56:06.196Z,11.18
2023-01-26T08:58:33.686Z,9.32
2023-01-26T09:01:04.502Z,9.88
2023-01-26T09:03:31.989Z,11.68
2023-01-26T09:06:00.955Z,11.35
2023-01-26T09:08:28.348Z,10.88
2023-01-26T09:10:54.923Z,9.75
2023-01-26T09:13:21.748Z,9.32
2023-01-26T09:15:50.067Z,8.43
2023-01-26T09:18:17.957Z,7.97
2023-01-26T09:20:44.782Z,9.07
2023-01-26T09:23:12.522Z,8.93
2023-01-26T09:25:40.060Z,7.80
2023-01-26T09:28:06.882Z,7.38
2023-01-26T09:30:33.545Z,7.15
2023-01-26T09:33:01.913Z,8.10
2023-01-26T09:35:29.191Z,7.55
2023-01-26T09:37:55.782Z,7.05
2023-01-26T09:40:51.560Z,7.60
2023-01-26T09:43:57.451Z,6.53
2023-01-26T09:46:24.155Z,6.47
2023-01-26T09:49:07.499Z,6.45
2023-01-26T09:52:18.025Z,6.20
2023-01-26T09:54:51.321Z,7.00
2023-01-26T09:57:24.895Z,6.75
2023-01-26T10:00:25.033Z,6.30
2023-01-26T10:03:16.601Z,5.40
2023-01-26T10:06:14.742Z,5.47
2023-01-26T10:09:33.210Z,5.63
2023-01-26T10:12:19.213Z,6.38
2023-01-26T10:14:52.594Z,5.10
2023-01-26T10:17:33.650Z,5.13
2023-01-26T10:20:17.884Z,4.70
2023-01-26T10:22:50.027Z,5.47
2023-01-26T10:25:19.344Z,5.53
2023-01-26T10:27:46.633Z,4.47
2023-01-26T10:30:18.709Z,4.93
2023-01-26T10:32:47.448Z,5.30
2023-01-26T10:35:20.324Z,4.50
2023-01-26T10:37:47.388Z,5.03
2023-01-26T10:40:14.443Z,4.35
2023-01-26T10:42:41.382Z,4.97
2023-01-26T10:45:25.705Z,4.78
2023-01-26T10:48:26.619Z,5.57
2023-01-26T10:50:54.149Z,4.25
2023-01-26T10:53:29.649Z,4.05
2023-01-26T10:56:01.406Z,3.65
2023-01-26T10:58:40.764Z,5.00
2023-01-26T11:01:12.448Z,4.55
2023-01-26T11:03:39.625Z,4.53
2023-01-26T11:06:10.135Z,4.55
2023-01-26T11:08:39.680Z,4.35
2023-01-26T11:11:11.718Z,3.88
2023-01-26T11:13:38.385Z,4.75
2023-01-26T11:16:25.110Z,5.07
2023-01-26T11:19:04.707Z,4.22
2023-01-26T11:21:41.331Z,5.25
2023-01-26T11:24:13.888Z,3.97
2023-01-26T11:27:02.496Z,5.20
2023-01-26T11:29:46.572Z,4.70
2023-01-26T11:32:27.403Z,3.50
2023-01-26T11:35:29.467Z,4.65
2023-01-26T11:38:01.927Z,4.05
2023-01-26T11:40:49.267Z,3.85
2023-01-26T11:43:37.489Z,3.40
2023-01-26T11:46:34.068Z,4.00
2023-01-26T11:49:33.180Z,4.65
2023-01-26T11:52:40.620Z,3.60
2023-01-26T11:55:20.620Z,5.28
2023-01-26T11:58:19.019Z,4.53
2023-01-26T12:01:07.150Z,4.47
2023-01-26T12:03:45.281Z,4.53
2023-01-26T12:06:21.171Z,3.92
2023-01-26T12:09:05.722Z,3.80
2023-01-26T12:11:42.378Z,2.97
2023-01-26T12:14:24.385Z,3.80
2023-01-26T12:17:17.358Z,4.05
2023-01-26T12:20:14.265Z,3.05
2023-01-26T12:22:50.739Z,3.90
2023-01-26T12:25:46.179Z,2.75
2023-01-26T12:28:27.532Z,2.78
2023-01-26T12:31:24.038Z,3.80
2023-01-26T12:33:55.685Z,2.90
2023-01-26T12:36:39.469Z,3.53
2023-01-26T12:39:24.843Z,3.55
2023-01-26T12:42:19.011Z,2.72
2023-01-26T12:45:02.443Z,3.95
2023-01-26T12:47:32.246Z,2.63
2023-01-26T12:50:36.820Z,3.80
2023-01-26T12:53:19.641Z,3.70
2023-01-26T12:55:53.583Z,3.33
2023-01-26T12:58:35.294Z,2.45
2023-01-26T13:01:11.582Z,3.42
2023-01-26T13:03:52.726Z,3.50
2023-01-26T13:06:23.405Z,2.60
2023-01-26T13:09:00.473Z,3.33
2023-01-26T13:11:39.347Z,3.80
2023-01-26T13:14:32.350Z,3.25
2023-01-26T13:17:17.428Z,4.28
2023-01-26T13:19:44.090Z,4.10
2023-01-26T13:22:23.425Z,4.90
2023-01-26T13:24:58.005Z,4.63
2023-01-26T13:27:34.832Z,4.32
2023-01-26T13:30:02.076Z,4.63
2023-01-26T13:32:28.694Z,4.47
2023-01-26T13:35:02.585Z,5.75
2023-01-26T13:40:00.578Z,4.50
2023-01-26T13:42:37.663Z,4.45
2023-01-26T13:45:30.898Z,4.75
2023-01-26T13:47:58.110Z,4.55
2023-01-26T13:50:37.526Z,5.22
2023-01-26T13:53:28.551Z,4.85
2023-01-26T13:55:58.587Z,6.28
2023-01-26T13:58:25.396Z,5.18
2023-01-26T14:01:07.019Z,7.13
2023-01-26T14:03:33.845Z,5.50
2023-01-26T14:06:04.792Z,5.00
2023-01-26T14:08:33.137Z,6.10
2023-01-26T14:11:02.470Z,5.68
2023-01-26T14:13:38.930Z,5.78
2023-01-26T14:16:06.825Z,5.55
2023-01-26T14:18:33.747Z,6.28
2023-01-26T14:21:17.732Z,4.75
2023-01-26T14:23:44.214Z,5.97
2023-01-26T14:26:26.636Z,5.65
2023-01-26T14:28:53.196Z,6.57
2023-01-26T14:31:23.514Z,6.97
2023-01-26T14:33:55.865Z,6.43
2023-01-26T14:36:25.709Z,5.88
2023-01-26T14:38:54.127Z,5.78
2023-01-26T14:41:28.455Z,7.15
2023-01-26T14:43:59.808Z,5.70
2023-01-26T14:46:53.244Z,5.38
2023-01-26T14:49:31.676Z,6.35
2023-01-26T14:51:58.643Z,6.85
2023-01-26T14:54:29.612Z,6.55
2023-01-26T14:56:57.912Z,5.65
2023-01-26T14:59:33.716Z,6.97
2023-01-26T15:02:20.393Z,6.28
2023-01-26T15:04:49.996Z,6.03
2023-01-26T15:07:40.505Z,5.68
2023-01-26T15:10:43.474Z,6.22
2023-01-26T15:13:10.007Z,7.28
2023-01-26T15:15:42.237Z,7.40
2023-01-26T15:18:17.301Z,8.65
2023-01-26T15:21:01.202Z,6.75
2023-01-26T15:23:32.247Z,6.55
2023-01-26T15:26:12.745Z,6.20
2023-01-26T15:28:39.486Z,5.95
2023-01-26T15:31:07.123Z,8.02
2023-01-26T15:33:47.766Z,5.20
2023-01-26T15:36:21.487Z,6.43
2023-01-26T15:38:48.177Z,4.88
2023-01-26T15:41:15.754Z,6.20
2023-01-26T15:43:42.375Z,5.53
2023-01-26T15:46:10.225Z,8.65
2023-01-26T15:48:36.821Z,9.35
2023-01-26T15:51:03.631Z,8.15
2023-01-26T15:53:30.329Z,8.32
2023-01-26T15:55:58.451Z,5.97
2023-01-26T15:58:25.906Z,7.28
2023-01-26T16:00:53.398Z,8.18
2023-01-26T16:03:22.068Z,7.53
2023-01-26T16:05:49.562Z,8.50
2023-01-26T16:08:17.627Z,6.93
2023-01-26T16:10:44.884Z,6.68
2023-01-26T16:13:13.592Z,6.70
2023-01-26T16:15:43.606Z,7.05
2023-01-26T16:18:10.813Z,7.18
2023-01-26T16:20:41.263Z,5.57
2023-01-26T16:23:22.043Z,7.35
2023-01-26T16:25:49.651Z,6.47
2023-01-26T16:28:17.031Z,7.88
2023-01-26T16:30:45.246Z,6.53
2023-01-26T16:33:13.865Z,5.90
2023-01-26T16:35:40.858Z,6.25
2023-01-26T16:38:13.717Z,6.25
2023-01-26T16:40:42.635Z,6.68
2023-01-26T16:43:27.879Z,7.22
2023-01-26T16:45:55.194Z,5.85
2023-01-26T16:48:22.759Z,7.05
2023-01-26T16:50:53.985Z,6.05
2023-01-26T16:53:28.252Z,5.55
2023-01-26T16:55:55.082Z,6.82
2023-01-26T16:58:22.432Z,6.03
2023-01-26T17:00:49.547Z,5.43
2023-01-26T17:03:16.262Z,5.85
2023-01-26T17:05:43.216Z,6.40
2023-01-26T17:08:09.772Z,6.97
2023-01-26T17:10:36.348Z,7.00
2023-01-26T17:13:03.445Z,5.72
2023-01-26T17:15:30.593Z,6.95
2023-01-26T17:17:57.638Z,6.43
2023-01-26T17:20:24.846Z,6.22
2023-01-26T17:22:51.652Z,5.90
2023-01-26T17:25:18.809Z,6.18
2023-01-26T17:27:46.302Z,6.93
2023-01-26T17:30:13.511Z,7.47
2023-01-26T17:32:42.218Z,6.68
2023-01-26T17:35:09.055Z,4.80
2023-01-26T17:37:37.570Z,7.00
2023-01-26T17:40:04.753Z,6.00
2023-01-26T17:42:33.343Z,6.70
2023-01-26T17:45:00.058Z,4.88
2023-01-26T17:47:26.648Z,6.80
2023-01-26T17:49:53.467Z,5.40
2023-01-26T17:52:20.160Z,5.63
2023-01-26T17:54:46.930Z,5.55
2023-01-26T17:57:15.089Z,5.85
2023-01-26T17:59:41.996Z,5.63
2023-01-26T18:02:11.281Z,5.80
2023-01-26T18:04:37.836Z,5.75
2023-01-26T18:07:04.435Z,6.40
2023-01-26T18:09:31.283Z,6.70
2023-01-26T18:11:57.840Z,5.43
2023-01-26T18:14:24.444Z,5.85
2023-01-26T18:16:51.101Z,6.10
2023-01-26T18:19:17.878Z,5.60
2023-01-26T18:21:44.435Z,5.63
2023-01-26T18:24:11.016Z,5.25
2023-01-26T18:26:38.417Z,5.80
2023-01-26T18:29:06.114Z,7.70
2023-01-26T18:31:35.321Z,5.40
2023-01-26T18:34:03.964Z,4.95
2023-01-26T18:36:31.166Z,5.35
2023-01-26T18:39:05.152Z,5.88
2023-01-26T18:41:33.167Z,5.25
2023-01-26T18:44:00.391Z,5.28
2023-01-26T18:46:28.396Z,4.70
2023-01-26T18:49:00.369Z,5.70
2023-01-26T18:51:32.799Z,5.18
2023-01-26T18:54:00.008Z,5.82
2023-01-26T18:56:27.097Z,4.82
2023-01-26T18:58:54.462Z,5.53
2023-01-26T19:01:22.042Z,5.15
2023-01-26T19:03:55.004Z,5.07
2023-01-26T19:06:24.107Z,5.93
2023-01-26T19:08:58.468Z,5.78
2023-01-26T19:11:30.669Z,5.03
2023-01-26T19:13:58.369Z,4.63
2023-01-26T19:16:25.720Z,4.38
2023-01-26T19:18:54.087Z,4.82
2023-01-26T19:21:24.090Z,4.25
2023-01-26T19:23:52.543Z,4.28
2023-01-26T19:26:25.355Z,4.10
2023-01-26T19:28:54.400Z,4.05
2023-01-26T19:31:22.258Z,4.55
2023-01-26T19:34:00.176Z,3.45
2023-01-26T19:36:29.358Z,3.08
2023-01-26T19:38:56.110Z,3.47
2023-01-26T19:41:23.637Z,3.33
2023-01-26T19:43:50.960Z,3.63
2023-01-26T19:46:18.868Z,3.60
2023-01-26T19:48:46.214Z,2.75
2023-01-26T19:51:17.482Z,3.22
2023-01-26T19:53:46.401Z,2.50
2023-01-26T19:56:18.415Z,2.95
2023-01-26T19:58:56.871Z,2.78
2023-01-26T20:01:24.941Z,3.88
2023-01-26T20:03:53.600Z,3.50
2023-01-26T20:06:23.148Z,2.47
2023-01-26T20:08:50.295Z,2.38
2023-01-26T20:11:17.903Z,2.78
2023-01-26T20:13:44.509Z,2.47
2023-01-26T20:16:13.644Z,2.00
2023-01-26T20:18:40.606Z,1.80
2023-01-26T20:21:07.288Z,2.50
2023-01-26T20:23:35.027Z,2.55
2023-01-26T20:26:09.861Z,2.58
2023-01-26T20:28:37.807Z,2.88
2023-01-26T20:31:16.312Z,2.33
2023-01-26T20:33:44.990Z,2.42
2023-01-26T20:36:12.985Z,2.30
2023-01-26T20:38:39.887Z,3.28
2023-01-26T20:41:12.330Z,2.88
2023-01-26T20:43:46.514Z,2.30
2023-01-26T20:46:19.849Z,2.38
2023-01-26T20:48:47.039Z,2.13
2023-01-26T20:51:17.018Z,3.15
2023-01-26T20:53:44.217Z,1.75
2023-01-26T20:56:11.705Z,2.08
2023-01-26T20:58:40.157Z,1.77
2023-01-26T21:01:17.360Z,2.50
2023-01-26T21:03:44.089Z,2.65
2023-01-26T21:06:13.704Z,1.73
2023-01-26T21:08:40.752Z,2.20
2023-01-26T21:11:10.693Z,1.98
2023-01-26T21:13:38.300Z,2.10
2023-01-26T21:16:07.157Z,1.67
2023-01-26T21:18:34.131Z,1.92
2023-01-26T21:21:03.856Z,2.08
2023-01-26T21:23:32.374Z,2.20
2023-01-26T21:26:00.831Z,2.00
2023-01-26T21:28:28.588Z,2.00
2023-01-26T21:31:07.742Z,1.92
2023-01-26T21:33:40.755Z,1.80
2023-01-26T21:36:09.749Z,1.63
2023-01-26T21:38:39.569Z,2.30
2023-01-26T21:41:36.401Z,2.30
2023-01-26T21:44:03.017Z,2.28
2023-01-26T21:46:30.400Z,1.77
2023-01-26T21:48:57.094Z,2.08
2023-01-26T21:51:43.277Z,2.08
2023-01-26T21:54:10.300Z,1.88
2023-01-26T21:56:37.257Z,1.67
2023-01-26T21:59:07.523Z,1.27
2023-01-26T22:01:36.796Z,1.73
2023-01-26T22:04:07.618Z,1.98
2023-01-26T22:06:35.300Z,2.13
2023-01-26T22:09:02.120Z,2.63
2023-01-26T22:11:28.659Z,2.13
2023-01-26T22:13:55.694Z,1.80
2023-01-26T22:16:22.615Z,1.80
2023-01-26T22:18:49.485Z,1.23
2023-01-26T22:21:17.240Z,1.38
2023-01-26T22:23:44.029Z,1.00
2023-01-26T22:26:11.688Z,1.30
2023-01-26T22:28:38.264Z,1.20
2023-01-26T22:31:06.813Z,1.30
2023-01-26T22:33:34.781Z,1.48
2023-01-26T22:36:04.247Z,1.52
2023-01-26T22:38:32.205Z,1.30
2023-01-26T22:40:58.924Z,1.15
2023-01-26T22:43:26.675Z,1.08
2023-01-26T22:45:53.578Z,1.05
2023-01-26T22:48:20.571Z,1.23
2023-01-26T22:50:47.471Z,1.27
2023-01-26T22:53:14.219Z,0.73
2023-01-26T22:55:42.013Z,1.17
2023-01-26T22:58:10.454Z,1.50
2023-01-26T23:00:38.287Z,1.17
2023-01-26T23:03:05.496Z,1.20
2023-01-26T23:05:35.318Z,1.85
2023-01-26T23:08:02.554Z,1.23
2023-01-26T23:10:30.111Z,1.55
2023-01-26T23:12:56.886Z,1.45
2023-01-26T23:15:24.254Z,1.92
2023-01-26T23:17:52.016Z,1.58
2023-01-26T23:20:20.522Z,1.20
2023-01-26T23:22:47.435Z,1.48
2023-01-26T23:25:33.085Z,1.00
2023-01-26T23:28:03.827Z,1.48
2023-01-26T23:30:31.435Z,2.63
2023-01-26T23:32:58.149Z,1.15
2023-01-26T23:35:26.536Z,1.88
2023-01-26T23:37:53.291Z,1.30
2023-01-26T23:40:19.886Z,1.17
2023-01-26T23:43:03.239Z,1.30
2023-01-26T23:45:30.688Z,1.88
2023-01-26T23:47:57.431Z,1.52
2023-01-26T23:50:24.110Z,2.05
2023-01-26T23:52:50.740Z,1.77
2023-01-26T23:55:17.763Z,1.70
2023-01-26T23:57:44.776Z,1.23
